Time;durP1;ratioP1;P1;durP2;ratioP2;P2;SDS_P1;SDS_P2;PMS_P1;PMS_P2;Temp;Humidity;BMP_temperature;BMP_pressure;BME280_temperature;BME280_humidity;BME280_pressure;Samples;Min_cycle;Max_cycle;Signal;HPM_P1;HPM_P2
2022/12/27 00:01:40;;;;;;;;;4.00;4.00;;;;;6.53;78.66;102483.41;5016531;28;53532;-85
2022/12/27 00:04:05;;;;;;;;;2.50;1.75;;;;;6.51;78.67;102484.22;5015742;28;45356;-84
2022/12/27 00:06:30;;;;;;;;;3.50;1.25;;;;;6.48;78.54;102487.66;5015018;28;51956;-85
2022/12/27 00:08:56;;;;;;;;;3.00;2.50;;;;;6.47;79.00;102488.47;5016340;28;47335;-85
2022/12/27 00:11:24;;;;;;;;;4.00;2.00;;;;;6.44;78.76;102485.84;5015576;28;45329;-85
2022/12/27 00:13:50;;;;;;;;;4.75;1.75;;;;;6.43;78.86;102497.03;4999037;28;45246;-85
2022/12/27 00:16:17;;;;;;;;;5.50;2.00;;;;;6.38;78.75;102485.75;5016932;28;45465;-85
2022/12/27 00:18:44;;;;;;;;;3.00;0.00;;;;;6.34;79.09;102492.59;5016540;28;46563;-85
2022/12/27 00:21:11;;;;;;;;;2.75;2.00;;;;;6.31;78.93;102489.94;5016265;28;45858;-85
2022/12/27 00:23:39;;;;;;;;;4.50;3.50;;;;;6.32;78.91;102493.41;4982588;28;45461;-85
2022/12/27 00:26:07;;;;;;;;;2.00;2.00;;;;;6.32;78.82;102490.81;5016671;28;45577;-85
2022/12/27 00:28:34;;;;;;;;;2.00;2.00;;;;;6.33;78.86;102493.44;4998902;28;45369;-84
2022/12/27 00:31:00;;;;;;;;;4.25;2.00;;;;;6.34;78.81;102495.16;4982318;28;45901;-84
2022/12/27 00:33:27;;;;;;;;;2.00;1.75;;;;;6.36;78.81;102492.63;4999655;28;45389;-85
2022/12/27 00:35:52;;;;;;;;;3.00;1.75;;;;;6.35;78.59;102498.63;5031609;28;45358;-85
2022/12/27 00:38:18;;;;;;;;;6.50;1.00;;;;;6.31;78.58;102491.66;5016376;28;45467;-85
2022/12/27 00:40:44;;;;;;;;;2.50;2.50;;;;;6.29;78.67;102494.22;5015086;28;45933;-85
2022/12/27 00:43:09;;;;;;;;;3.00;1.00;;;;;6.29;78.83;102493.34;5016193;28;45235;-85
2022/12/27 00:45:34;;;;;;;;;2.00;1.00;;;;;6.28;78.92;102499.34;5031572;28;48129;-85
2022/12/27 00:48:00;;;;;;;;;5.25;1.00;;;;;6.26;78.88;102501.94;5014551;28;59146;-85
2022/12/27 00:50:25;;;;;;;;;1.25;1.00;;;;;6.27;78.93;102507.97;5030611;28;58722;-84
2022/12/27 00:52:51;;;;;;;;;4.50;2.00;;;;;6.29;78.63;102511.44;5015899;28;57787;-85
2022/12/27 00:55:16;;;;;;;;;1.75;1.75;;;;;6.31;78.98;102507.19;5030866;28;64850;-85
2022/12/27 00:57:41;;;;;;;;;1.00;1.00;;;;;6.31;78.44;102515.78;5014766;28;47434;-85
2022/12/27 01:00:07;;;;;;;;;1.25;1.25;;;;;6.31;78.70;102517.53;5015587;28;54074;-85
2022/12/27 01:02:33;;;;;;;;;2.00;1.50;;;;;6.29;78.73;102514.91;5031526;28;45302;-85
2022/12/27 01:04:58;;;;;;;;;7.75;1.25;;;;;6.30;78.98;102513.22;5014554;28;45425;-85
2022/12/27 01:07:24;;;;;;;;;2.00;0.75;;;;;6.28;78.78;102517.47;5014995;28;69284;-85
2022/12/27 01:09:49;;;;;;;;;2.00;1.00;;;;;6.26;78.91;102519.16;5031311;28;47271;-84
2022/12/27 01:12:15;;;;;;;;;1.50;0.50;;;;;6.26;78.74;102524.31;5014962;28;45419;-84
2022/12/27 01:14:40;;;;;;;;;2.50;1.00;;;;;6.25;78.83;102532.94;5015500;28;55611;-85
2022/12/27 01:17:06;;;;;;;;;1.00;0.75;;;;;6.27;78.75;102526.94;5030788;28;57669;-85
2022/12/27 01:19:31;;;;;;;;;4.00;2.00;;;;;6.27;78.67;102521.75;5030044;28;45352;-84
2022/12/27 01:21:56;;;;;;;;;5.00;2.00;;;;;6.31;78.92;102522.69;5030857;28;53625;-85
2022/12/27 01:24:22;;;;;;;;;1.00;1.00;;;;;6.29;78.80;102520.06;5031002;28;51760;-85
2022/12/27 01:26:47;;;;;;;;;2.00;1.00;;;;;6.33;79.02;102518.41;5015767;28;46335;-85
2022/12/27 01:29:12;;;;;;;;;1.75;1.75;;;;;6.34;79.02;102523.63;5030430;28;61197;-85
2022/12/27 01:31:38;;;;;;;;;2.00;1.50;;;;;6.35;79.08;102529.66;5015639;28;45403;-85
2022/12/27 01:34:03;;;;;;;;;1.00;1.00;;;;;6.36;78.92;102521.06;5030490;28;45462;-85
2022/12/27 01:36:30;;;;;;;;;1.25;1.00;;;;;6.39;79.11;102526.31;5030790;28;46670;-85
2022/12/27 01:38:56;;;;;;;;;4.50;3.50;;;;;6.39;78.80;102526.31;5014452;28;45457;-84
2022/12/27 01:44:33;;;;;;;;;7.50;1.75;;;;;6.41;78.66;102540.13;5015728;28;45395;-84
2022/12/27 01:46:59;;;;;;;;;1.50;1.00;;;;;6.41;78.87;102532.38;5015506;28;45361;-85
2022/12/27 01:49:24;;;;;;;;;1.50;1.50;;;;;6.44;79.08;102536.72;5013916;28;45266;-84
2022/12/27 01:51:50;;;;;;;;;1.25;1.00;;;;;6.45;78.78;102535.88;5030381;28;57179;-85
2022/12/27 01:54:15;;;;;;;;;1.00;1.00;;;;;6.45;78.69;102523.81;5030653;28;49134;-85
2022/12/27 01:56:40;;;;;;;;;7.50;1.75;;;;;6.47;78.72;102536.78;5030082;28;64029;-84
2022/12/27 01:59:07;;;;;;;;;1.75;1.75;;;;;6.47;78.83;102531.59;5030753;28;45298;-85
2022/12/27 02:01:41;;;;;;;;;2.00;1.00;;;;;6.46;78.83;102528.13;5030568;28;53456;-85
2022/12/27 02:04:08;;;;;;;;;1.00;1.00;;;;;6.44;79.22;102535.00;4997268;28;45650;-85
2022/12/27 02:06:35;;;;;;;;;1.25;1.00;;;;;6.43;78.73;102530.69;5015216;28;45585;-85
2022/12/27 02:09:06;;;;;;;;;1.00;1.00;;;;;6.45;79.12;102541.91;5015117;28;45390;-84
2022/12/27 02:11:52;;;;;;;;;2.50;0.75;;;;;6.46;78.85;102553.13;5015315;28;45424;-85
2022/12/27 02:14:30;;;;;;;;;5.50;1.00;;;;;6.47;79.21;102547.97;5015234;28;45337;-85
2022/12/27 02:16:58;;;;;;;;;2.00;2.00;;;;;6.47;78.99;102553.16;5030101;28;45317;-85
2022/12/27 02:19:36;;;;;;;;;3.75;1.00;;;;;6.44;78.93;102544.47;5013895;28;45343;-84
2022/12/27 02:22:03;;;;;;;;;4.00;4.00;;;;;6.41;79.20;102545.31;5015309;28;45345;-85
2022/12/27 02:24:53;;;;;;;;;2.00;1.25;;;;;6.36;79.17;102541.75;5015180;28;45584;-85
2022/12/27 02:27:33;;;;;;;;;2.50;2.00;;;;;6.36;79.28;102539.16;5015026;28;46375;-84
2022/12/27 02:30:05;;;;;;;;;1.00;1.00;;;;;6.34;79.14;102552.06;5015005;28;45481;-85
2022/12/27 02:32:40;;;;;;;;;1.00;1.00;;;;;6.34;79.26;102546.91;5033381;28;45240;-84
2022/12/27 02:35:26;;;;;;;;;1.00;1.00;;;;;6.35;79.37;102547.75;5036113;28;45547;-84
2022/12/27 02:37:57;;;;;;;;;2.00;2.00;;;;;6.33;79.50;102529.66;5037027;28;45585;-85
2022/12/27 02:55:24;;;;;;;;;1.25;1.00;;;;;6.48;80.02;102544.56;5038195;28;45944;-84
2022/12/27 02:58:17;;;;;;;;;4.75;0.75;;;;;6.49;79.75;102543.69;5020269;28;45390;-85
2022/12/27 03:04:13;;;;;;;;;1.00;1.00;;;;;6.47;79.89;102558.34;5022934;28;45336;-85
2022/12/27 03:07:06;;;;;;;;;1.25;1.25;;;;;6.48;80.23;102559.19;5015735;28;45568;-85
2022/12/27 03:15:56;;;;;;;;;5.00;1.00;;;;;6.44;79.87;102554.81;5015315;28;45683;-84
2022/12/27 03:18:37;;;;;;;;;7.75;1.00;;;;;6.43;80.25;102556.53;5015579;28;45369;-85
2022/12/27 03:26:37;;;;;;;;;1.25;1.25;;;;;6.44;80.51;102547.91;5015499;28;45334;-84
2022/12/27 03:34:40;;;;;;;;;5.00;1.50;;;;;6.38;80.42;102558.16;5007175;28;45490;-84
2022/12/27 03:40:10;;;;;;;;;1.50;1.25;;;;;6.33;80.86;102558.09;4981695;28;45968;-84
2022/12/27 03:48:19;;;;;;;;;2.00;2.00;;;;;6.20;80.61;102562.19;5002242;28;45829;-85
2022/12/27 03:50:55;;;;;;;;;3.50;1.00;;;;;6.19;80.56;102557.84;5017329;28;45282;-85
2022/12/27 03:53:35;;;;;;;;;3.50;1.00;;;;;6.16;80.93;102559.50;4999618;28;45372;-84
2022/12/27 03:56:01;;;;;;;;;5.00;3.50;;;;;6.14;80.54;102558.59;4999161;28;45544;-84
2022/12/27 03:58:27;;;;;;;;;2.00;2.00;;;;;6.13;80.89;102562.91;4998912;28;45346;-84
2022/12/27 04:00:52;;;;;;;;;4.00;2.00;;;;;6.14;81.14;102561.19;4998516;28;64751;-84
2022/12/27 04:03:17;;;;;;;;;2.50;2.50;;;;;6.14;80.91;102564.63;4998416;28;66302;-85
2022/12/27 04:05:43;;;;;;;;;2.00;1.00;;;;;6.18;81.36;102562.97;4999279;28;46335;-85
2022/12/27 04:35:27;;;;;;;;;4.25;1.25;;;;;6.12;81.27;102560.28;5031299;28;45358;-85
2022/12/27 04:37:52;;;;;;;;;2.00;1.00;;;;;6.12;81.44;102563.72;5036000;28;56606;-85
2022/12/27 04:56:42;;;;;;;;;4.00;2.00;;;;;6.09;81.04;102565.38;5035813;28;45343;-84
2022/12/27 05:02:04;;;;;;;;;0.25;0.25;;;;;6.09;81.24;102562.81;4994129;28;45413;-84
2022/12/27 05:04:32;;;;;;;;;2.50;2.00;;;;;6.07;81.16;102567.94;4978810;28;45424;-85
2022/12/27 05:13:58;;;;;;;;;3.50;1.50;;;;;6.10;81.46;102556.81;4994150;28;45560;-85
2022/12/27 05:15:11;;;;;;;;;1.75;1.00;;;;;6.18;81.23;102557.81;4994176;28;45361;-85
2022/12/27 05:17:36;;;;;;;;;2.50;2.00;;;;;6.17;81.49;102556.94;4993125;28;65411;-85
2022/12/27 05:20:01;;;;;;;;;7.75;4.00;;;;;6.17;81.29;102556.94;4993649;28;47134;-85
2022/12/27 05:27:54;;;;;;;;;3.50;2.75;;;;;6.13;81.27;102552.56;4980240;28;45401;-85
2022/12/27 05:30:19;;;;;;;;;2.75;2.75;;;;;6.10;81.10;102557.66;4992844;28;68621;-85
2022/12/27 05:32:45;;;;;;;;;6.50;2.00;;;;;6.06;80.90;102558.47;4993575;28;45361;-85
2022/12/27 05:35:10;;;;;;;;;2.00;1.00;;;;;6.03;81.28;102549.78;4993467;28;45325;-84
2022/12/27 05:37:35;;;;;;;;;9.75;3.50;;;;;6.00;81.21;102548.00;4976506;28;62083;-85
2022/12/27 05:40:01;;;;;;;;;4.25;1.00;;;;;5.96;81.55;102546.19;5017224;28;49517;-85
2022/12/27 05:42:26;;;;;;;;;1.00;1.00;;;;;5.92;81.46;102544.34;5017366;28;45506;-84
2022/12/27 05:44:51;;;;;;;;;4.50;2.00;;;;;5.91;81.43;102552.97;5000830;28;52658;-85
2022/12/27 05:47:17;;;;;;;;;1.75;0.75;;;;;5.89;81.79;102552.94;5017257;28;55730;-85
2022/12/27 05:49:42;;;;;;;;;2.50;2.50;;;;;5.88;81.75;102556.34;5017047;28;58786;-85
2022/12/27 05:52:07;;;;;;;;;4.25;3.50;;;;;5.88;81.97;102555.50;5034861;28;58546;-85
2022/12/27 05:54:33;;;;;;;;;5.50;2.00;;;;;5.86;81.81;102547.69;5016617;28;62165;-84
2022/12/27 05:56:58;;;;;;;;;6.00;2.00;;;;;5.85;81.69;102540.81;5017555;28;45417;-85
2022/12/27 05:59:23;;;;;;;;;5.00;0.50;;;;;5.84;81.67;102539.03;5017195;28;49328;-84
2022/12/27 06:01:50;;;;;;;;;6.00;3.00;;;;;5.86;81.90;102533.91;5035455;28;45271;-85
2022/12/27 06:04:15;;;;;;;;;7.00;2.00;;;;;5.85;82.04;102524.41;5035600;28;45440;-85
2022/12/27 06:06:40;;;;;;;;;4.00;1.50;;;;;5.89;81.87;102523.59;5037041;28;58595;-84
2022/12/27 06:09:06;;;;;;;;;1.25;1.25;;;;;5.90;82.10;102522.78;5019835;28;66734;-85
2022/12/27 06:11:31;;;;;;;;;1.75;1.75;;;;;5.92;81.50;102524.53;5038137;28;57302;-84
2022/12/27 06:13:56;;;;;;;;;2.00;1.00;;;;;5.94;81.69;102530.63;5020343;28;56741;-85
2022/12/27 06:16:22;;;;;;;;;3.50;2.00;;;;;5.97;81.33;102525.53;5038812;28;45422;-84
2022/12/27 06:18:47;;;;;;;;;3.50;3.50;;;;;6.03;81.63;102529.09;5020022;28;66196;-85
2022/12/27 06:21:15;;;;;;;;;1.75;1.75;;;;;6.07;81.66;102536.06;5003655;28;58781;-84
2022/12/27 06:23:43;;;;;;;;;1.75;1.00;;;;;6.11;81.92;102532.69;5020638;28;45441;-84
2022/12/27 06:26:23;;;;;;;;;2.00;1.25;;;;;6.14;81.78;102537.91;5038614;28;45347;-84
2022/12/27 06:28:49;;;;;;;;;1.00;1.00;;;;;6.14;81.39;102537.91;5038457;28;45456;-84
2022/12/27 06:31:16;;;;;;;;;1.75;0.75;;;;;6.14;81.82;102541.34;5038269;28;45378;-84
2022/12/27 06:33:41;;;;;;;;;4.50;1.00;;;;;6.15;81.56;102540.53;5020270;28;45376;-84
2022/12/27 06:36:12;;;;;;;;;2.50;1.00;;;;;6.18;81.54;102540.59;5020526;28;45396;-84
2022/12/27 06:38:38;;;;;;;;;4.00;2.00;;;;;6.19;81.65;102531.97;5020038;28;46353;-85
2022/12/27 06:41:05;;;;;;;;;1.00;1.00;;;;;6.19;81.32;102529.41;5036964;28;45310;-85
2022/12/27 06:43:30;;;;;;;;;2.50;0.75;;;;;6.19;81.72;102531.13;5020614;28;45295;-85
2022/12/27 06:46:06;;;;;;;;;1.00;1.00;;;;;6.17;81.18;102535.41;5019992;28;59109;-85
2022/12/27 06:48:32;;;;;;;;;5.00;1.00;;;;;6.13;81.17;102529.28;5038117;28;46496;-85
2022/12/27 06:50:57;;;;;;;;;1.25;1.00;;;;;6.12;81.34;102531.84;5003635;28;45315;-85
2022/12/27 06:53:23;;;;;;;;;4.00;1.75;;;;;6.11;81.87;102532.69;5020107;28;45771;-84
2022/12/27 06:55:48;;;;;;;;;4.25;2.00;;;;;6.10;81.88;102539.56;5038070;28;45444;-85
2022/12/27 06:58:14;;;;;;;;;4.25;1.25;;;;;6.09;81.49;102547.28;5019734;28;54725;-85
2022/12/27 07:00:40;;;;;;;;;2.75;1.75;;;;;6.07;81.87;102549.84;5038045;28;45241;-85
2022/12/27 07:03:05;;;;;;;;;1.75;1.00;;;;;6.05;81.86;102540.31;5003598;28;45361;-85
2022/12/27 07:05:33;;;;;;;;;3.25;1.25;;;;;6.03;81.63;102540.28;5020068;28;45382;-85
2022/12/27 07:07:59;;;;;;;;;2.00;2.00;;;;;6.03;81.97;102534.25;5019508;28;46219;-84
2022/12/27 07:10:24;;;;;;;;;1.75;1.75;;;;;6.03;81.68;102532.53;5019886;28;45418;-85
2022/12/27 07:12:49;;;;;;;;;6.75;2.00;;;;;6.02;81.74;102541.16;5037872;28;45301;-84
2022/12/27 07:15:15;;;;;;;;;2.00;2.00;;;;;6.01;82.00;102536.81;5037181;28;61472;-84
2022/12/27 07:17:40;;;;;;;;;6.50;3.00;;;;;6.03;81.88;102539.44;5035861;28;63952;-84
2022/12/27 07:20:06;;;;;;;;;3.75;3.50;;;;;6.04;82.26;102536.03;5019017;28;67621;-85
2022/12/27 07:22:32;;;;;;;;;6.25;4.50;;;;;6.03;81.73;102540.28;5037282;28;45302;-84
2022/12/27 07:24:58;;;;;;;;;6.00;4.00;;;;;6.04;82.20;102548.94;5037673;28;45531;-84
2022/12/27 07:27:23;;;;;;;;;8.25;4.50;;;;;6.04;82.36;102548.94;5037530;28;45427;-84
2022/12/27 07:29:49;;;;;;;;;7.50;5.00;;;;;6.04;82.47;102547.22;5019605;28;45416;-84
2022/12/27 07:32:14;;;;;;;;;7.25;5.00;;;;;6.05;82.09;102548.09;5019921;28;45413;-84
2022/12/27 07:34:39;;;;;;;;;4.00;4.00;;;;;6.05;82.03;102548.94;5036675;28;52246;-84
2022/12/27 07:37:05;;;;;;;;;7.00;4.00;;;;;6.06;82.25;102557.59;5036882;28;46979;-85
2022/12/27 07:39:30;;;;;;;;;5.00;5.00;;;;;6.07;82.10;102557.59;5037252;28;45420;-85
2022/12/27 07:41:55;;;;;;;;;5.25;4.25;;;;;6.10;82.55;102554.22;5035873;28;46695;-85
2022/12/27 07:44:21;;;;;;;;;6.50;6.00;;;;;6.12;82.34;102547.34;5036524;28;65298;-84
2022/12/27 07:46:46;;;;;;;;;17.00;8.25;;;;;6.12;82.22;102552.53;5036624;28;59060;-84
2022/12/27 07:49:11;;;;;;;;;10.00;6.75;;;;;6.14;82.57;102550.84;5037271;28;45381;-84
2022/12/27 07:51:37;;;;;;;;;9.25;7.25;;;;;6.15;82.11;102555.19;5036821;28;45361;-84
2022/12/27 07:54:02;;;;;;;;;8.00;6.75;;;;;6.16;82.26;102551.75;5018896;28;52612;-84
2022/12/27 07:56:28;;;;;;;;;4.25;4.00;;;;;6.16;82.10;102559.50;5036908;28;47270;-84
2022/12/27 07:58:55;;;;;;;;;7.25;3.00;;;;;6.19;82.18;102562.16;5019232;28;45428;-84
2022/12/27 08:01:22;;;;;;;;;11.25;7.25;;;;;6.22;82.21;102554.44;5019158;28;45621;-84
2022/12/27 08:03:49;;;;;;;;;5.25;5.00;;;;;6.25;81.78;102557.06;5019390;28;45369;-85
2022/12/27 08:06:31;;;;;;;;;8.50;6.00;;;;;6.29;82.24;102556.28;5018600;28;46657;-84
2022/12/27 08:08:58;;;;;;;;;2.50;2.50;;;;;6.29;81.76;102548.53;5019104;28;45716;-85
2022/12/27 08:11:25;;;;;;;;;7.50;2.50;;;;;6.32;81.88;102556.34;5019004;28;45403;-85
2022/12/27 08:13:51;;;;;;;;;10.00;4.75;;;;;6.34;81.67;102548.63;5002705;28;45412;-85
2022/12/27 08:16:22;;;;;;;;;3.50;2.00;;;;;6.36;81.55;102562.44;5036718;28;45503;-84
2022/12/27 08:18:47;;;;;;;;;4.25;4.25;;;;;6.38;81.34;102561.63;5018829;28;45446;-84
2022/12/27 08:21:14;;;;;;;;;7.25;4.00;;;;;6.40;81.36;102552.16;5035523;28;62392;-85
2022/12/27 08:23:39;;;;;;;;;7.50;4.00;;;;;6.41;81.47;102563.41;5019084;28;45351;-84
2022/12/27 08:26:06;;;;;;;;;9.25;7.50;;;;;6.42;81.28;102565.13;5036534;28;46529;-85
2022/12/27 08:28:32;;;;;;;;;10.50;7.00;;;;;6.44;81.67;102568.63;5036399;28;45432;-85
2022/12/27 08:30:59;;;;;;;;;9.25;4.00;;;;;6.45;81.13;102561.75;5036624;28;45433;-84
2022/12/27 08:33:24;;;;;;;;;7.00;5.75;;;;;6.46;81.35;102561.75;5018707;28;45516;-84
2022/12/27 08:35:50;;;;;;;;;9.50;5.00;;;;;6.47;81.63;102562.66;5001893;28;48370;-84
2022/12/27 08:38:15;;;;;;;;;5.25;5.25;;;;;6.47;81.32;102565.22;5001963;28;52796;-84
2022/12/27 08:40:43;;;;;;;;;8.75;5.00;;;;;6.46;81.36;102566.91;5034725;28;58187;-84
2022/12/27 08:43:08;;;;;;;;;1.00;0.00;;;;;6.44;81.28;102571.19;5018519;28;45373;-84
2022/12/27 08:45:36;;;;;;;;;6.50;6.50;;;;;6.45;81.16;102580.72;5036245;28;46994;-85
2022/12/27 08:48:02;;;;;;;;;8.75;7.00;;;;;6.47;81.52;102576.44;5001796;28;45774;-84
2022/12/27 08:50:27;;;;;;;;;5.00;4.50;;;;;6.51;81.68;102572.19;5036027;28;45333;-84
2022/12/27 08:52:58;;;;;;;;;5.25;4.25;;;;;6.54;81.35;102573.13;5018493;28;45365;-84
2022/12/27 08:55:25;;;;;;;;;7.75;5.00;;;;;6.54;81.17;102569.66;5001682;28;48381;-84
2022/12/27 08:57:55;;;;;;;;;6.25;2.00;;;;;6.59;81.17;102575.78;5018809;28;45401;-84
2022/12/27 09:00:20;;;;;;;;;7.75;4.25;;;;;6.64;81.15;102576.72;5018381;28;45393;-84
2022/12/27 09:02:46;;;;;;;;;6.50;5.00;;;;;6.69;81.01;102582.00;5018084;28;45519;-84
2022/12/27 09:05:11;;;;;;;;;8.25;4.00;;;;;6.74;80.58;102582.91;5018349;28;45663;-84
2022/12/27 09:07:36;;;;;;;;;9.50;4.00;;;;;6.79;80.90;102579.56;5017912;28;53516;-84
2022/12/27 09:10:02;;;;;;;;;5.50;4.25;;;;;6.83;80.49;102588.25;5035434;28;62579;-84
2022/12/27 09:12:27;;;;;;;;;9.50;4.75;;;;;6.88;79.94;102588.34;5036165;28;45291;-84
2022/12/27 09:14:53;;;;;;;;;4.25;2.00;;;;;6.97;80.66;102585.91;5017507;28;57514;-84
2022/12/27 09:17:18;;;;;;;;;9.50;4.25;;;;;7.04;79.57;102597.19;5035299;28;45381;-84
2022/12/27 09:19:43;;;;;;;;;3.50;3.50;;;;;7.08;79.58;102594.69;5017468;28;62393;-84
2022/12/27 09:22:09;;;;;;;;;7.00;2.00;;;;;7.14;79.37;102591.34;5035302;28;62955;-84
2022/12/27 09:24:34;;;;;;;;;3.00;3.00;;;;;7.23;79.20;102594.06;5035770;28;46438;-84
2022/12/27 09:26:59;;;;;;;;;6.00;5.50;;;;;7.31;78.89;102601.94;5018003;28;45470;-84
2022/12/27 09:29:25;;;;;;;;;4.25;4.00;;;;;7.36;78.34;102598.56;5035768;28;45408;-84
2022/12/27 09:31:50;;;;;;;;;2.00;1.00;;;;;7.43;78.03;102593.44;5034507;28;62991;-84
2022/12/27 09:34:16;;;;;;;;;6.00;4.00;;;;;7.45;78.04;102603.00;5017358;28;46349;-84
2022/12/27 09:36:41;;;;;;;;;2.00;2.00;;;;;7.48;77.44;102609.94;5033817;28;63503;-84
2022/12/27 09:39:06;;;;;;;;;6.25;4.00;;;;;7.53;78.05;102610.88;5034533;28;45324;-83
2022/12/27 09:41:38;;;;;;;;;7.00;3.00;;;;;7.57;77.46;102621.28;5019781;28;45494;-84
2022/12/27 09:44:11;;;;;;;;;4.00;4.00;;;;;7.61;77.11;102613.56;5039271;28;46644;-84
2022/12/27 09:46:45;;;;;;;;;7.50;3.50;;;;;7.66;77.13;102609.34;5038687;28;45745;-84
2022/12/27 09:49:13;;;;;;;;;5.00;4.00;;;;;7.69;76.66;102601.56;5021270;28;45397;-85
2022/12/27 09:52:03;;;;;;;;;4.25;1.50;;;;;7.70;76.75;102609.38;5004562;28;45676;-82
2022/12/27 09:54:38;;;;;;;;;4.00;2.00;;;;;7.71;76.30;102600.75;5018697;28;46274;-85
2022/12/27 09:57:16;;;;;;;;;10.75;4.00;;;;;7.73;76.59;102608.56;5021217;28;45443;-85
2022/12/27 09:59:44;;;;;;;;;12.25;4.00;;;;;7.72;76.63;102597.31;5021089;28;45483;-85
2022/12/27 10:02:21;;;;;;;;;4.00;2.00;;;;;7.72;76.62;102597.31;5020949;28;45386;-85
2022/12/27 10:04:46;;;;;;;;;5.75;5.50;;;;;7.70;76.36;102599.00;5038748;28;46484;-83
2022/12/27 10:07:25;;;;;;;;;6.50;5.00;;;;;7.68;76.00;102589.47;5021135;28;45465;-84
2022/12/27 10:10:16;;;;;;;;;7.50;5.75;;;;;7.66;76.11;102586.88;5038945;28;45238;-84
2022/12/27 10:13:10;;;;;;;;;6.50;5.00;;;;;7.64;76.13;102592.88;5021172;28;45362;-83
2022/12/27 10:15:45;;;;;;;;;5.00;4.00;;;;;7.61;75.22;102587.66;5019863;28;48358;-83
2022/12/27 10:18:23;;;;;;;;;8.75;4.50;;;;;7.58;75.52;102583.31;5038864;28;45412;-84
2022/12/27 10:21:09;;;;;;;;;6.00;4.00;;;;;7.61;75.38;102583.34;5039164;28;45367;-83
2022/12/27 10:23:37;;;;;;;;;14.25;8.25;;;;;7.63;76.09;102571.25;5038837;28;45401;-83
2022/12/27 10:26:12;;;;;;;;;6.00;4.25;;;;;7.68;75.73;102569.59;5004223;28;47516;-83
2022/12/27 10:28:41;;;;;;;;;4.00;4.00;;;;;7.72;75.72;102571.38;5020842;28;45394;-83
2022/12/27 10:31:18;;;;;;;;;0.00;0.00;;;;;7.79;75.38;102579.25;5020387;28;45362;-83
2022/12/27 10:33:45;;;;;;;;;2.00;2.00;;;;;7.85;75.49;102575.00;5020285;28;45345;-83
2022/12/27 10:36:22;;;;;;;;;5.00;5.00;;;;;7.91;75.07;102576.78;5038179;28;45473;-84
2022/12/27 10:38:48;;;;;;;;;2.00;2.00;;;;;7.97;74.68;102581.16;5038296;28;45771;-84
2022/12/27 10:41:31;;;;;;;;;3.50;3.50;;;;;8.03;74.97;102582.13;5019916;28;53232;-83
2022/12/27 10:43:57;;;;;;;;;5.00;2.00;;;;;8.08;74.20;102577.88;5020880;28;45370;-83
2022/12/27 10:46:25;;;;;;;;;2.00;2.00;;;;;8.19;74.64;102569.31;5019587;28;53167;-83
2022/12/27 10:48:54;;;;;;;;;1.25;1.25;;;;;8.28;74.32;102570.28;5020437;28;45827;-83
2022/12/27 10:51:28;;;;;;;;;8.00;1.25;;;;;8.43;73.97;102573.91;5020289;28;45354;-83
2022/12/27 10:54:00;;;;;;;;;3.00;2.00;;;;;8.60;73.65;102574.06;5022095;28;45318;-83
2022/12/27 10:56:40;;;;;;;;;5.75;2.00;;;;;8.80;73.34;102567.28;5038055;28;46389;-83
2022/12/27 10:59:21;;;;;;;;;2.50;1.00;;;;;9.04;72.90;102576.13;5020217;28;45774;-83
2022/12/27 11:02:05;;;;;;;;;3.50;1.00;;;;;9.43;72.49;102577.22;5020178;28;45333;-84
2022/12/27 11:04:31;;;;;;;;;1.00;1.00;;;;;10.55;72.64;102575.00;5038429;28;45367;-83
2022/12/27 11:07:02;;;;;;;;;3.00;1.00;;;;;11.87;70.33;102566.00;5038101;28;48160;-84
2022/12/27 11:09:31;;;;;;;;;2.25;1.00;;;;;13.07;67.99;102566.88;5037735;28;45363;-84
2022/12/27 11:12:17;;;;;;;;;1.00;1.00;;;;;14.36;66.61;102572.22;5020190;28;45498;-83
2022/12/27 11:15:14;;;;;;;;;1.00;1.00;;;;;15.62;64.31;102557.72;5037630;28;45409;-84
2022/12/27 11:17:41;;;;;;;;;2.00;1.00;;;;;16.84;59.65;102554.91;5019859;28;46336;-84
2022/12/27 11:20:36;;;;;;;;;1.00;1.00;;;;;17.69;56.08;102542.88;5037909;28;45822;-84
2022/12/27 11:23:09;;;;;;;;;2.25;0.50;;;;;18.35;54.19;102532.91;5037839;28;45373;-84
2022/12/27 11:25:59;;;;;;;;;2.25;1.00;;;;;18.86;51.46;102533.00;5019828;28;45382;-84
2022/12/27 11:28:36;;;;;;;;;0.50;0.50;;;;;19.46;52.31;102534.28;5019389;28;46511;-84
2022/12/27 11:31:07;;;;;;;;;2.50;1.00;;;;;20.15;50.53;102519.31;5020068;28;45414;-84
2022/12/27 11:33:38;;;;;;;;;2.00;0.50;;;;;21.02;46.93;102514.72;5014715;28;45385;-84
2022/12/27 11:36:04;;;;;;;;;1.00;1.00;;;;;21.75;46.18;102502.53;5016081;28;45458;-84
2022/12/27 11:38:32;;;;;;;;;1.00;1.00;;;;;22.34;44.31;102495.25;5016211;28;46636;-85
2022/12/27 11:41:02;;;;;;;;;1.00;1.00;;;;;22.65;42.98;102496.31;5016173;28;45374;-84
2022/12/27 11:43:32;;;;;;;;;1.00;0.75;;;;;23.16;41.72;102499.81;5017237;28;45420;-84
2022/12/27 11:45:59;;;;;;;;;2.25;1.00;;;;;23.29;41.04;102486.72;4999602;28;45279;-84
2022/12/27 11:51:45;;;;;;;;;1.00;1.00;;;;;23.89;38.55;102490.50;5002497;22;45714;-84
2022/12/27 11:54:14;;;;;;;;;3.00;1.00;;;;;24.25;38.12;102498.09;4979900;28;45340;-84
2022/12/27 11:57:27;;;;;;;;;3.00;1.00;;;;;24.48;36.78;102491.44;4997190;28;45363;-84
2022/12/27 12:00:02;;;;;;;;;0.00;0.00;;;;;24.67;34.57;102496.53;4997137;28;46685;-84
2022/12/27 12:02:32;;;;;;;;;0.50;0.50;;;;;24.59;35.68;102496.13;4979895;28;45610;-84
2022/12/27 12:05:19;;;;;;;;;1.00;1.00;;;;;24.83;33.60;102496.44;4979242;28;45470;-84
2022/12/27 12:08:09;;;;;;;;;0.00;0.00;;;;;24.87;33.78;102500.63;4979908;28;45454;-84
2022/12/27 12:11:05;;;;;;;;;3.00;0.00;;;;;25.28;33.59;102496.34;4997228;28;45437;-84
2022/12/27 12:13:30;;;;;;;;;1.00;1.00;;;;;25.25;33.89;102493.88;4979352;28;45391;-84
2022/12/27 12:16:02;;;;;;;;;1.00;1.00;;;;;25.17;32.68;102497.00;4997290;28;45418;-85
2022/12/27 12:18:42;;;;;;;;;0.75;0.25;;;;;25.25;32.75;102501.88;4979731;28;45490;-84
2022/12/27 12:21:21;;;;;;;;;2.00;0.00;;;;;25.15;33.52;102498.91;4996959;28;45555;-85
2022/12/27 12:23:52;;;;;;;;;3.25;0.25;;;;;25.08;32.99;102489.56;4979463;28;45331;-85
2022/12/27 12:26:25;;;;;;;;;0.75;0.75;;;;;25.32;32.22;102489.88;4996754;28;45350;-85
2022/12/27 12:28:53;;;;;;;;;1.00;1.00;;;;;25.55;31.46;102483.03;4979600;28;45400;-85
2022/12/27 12:31:37;;;;;;;;;0.50;0.50;;;;;25.45;32.39;102480.13;4988616;28;45738;-85
2022/12/27 12:34:39;;;;;;;;;0.00;0.00;;;;;25.61;31.24;102468.44;4996673;28;45614;-85
2022/12/27 12:37:39;;;;;;;;;0.00;0.00;;;;;25.56;30.49;102470.59;4995160;28;45673;-84
2022/12/27 12:40:14;;;;;;;;;2.75;0.25;;;;;25.29;30.86;102460.72;4996740;28;45437;-85
2022/12/27 12:42:51;;;;;;;;;3.50;1.00;;;;;25.39;31.66;102461.00;4978839;28;46671;-84
2022/12/27 12:45:26;;;;;;;;;1.00;1.00;;;;;25.38;31.23;102465.47;4978902;28;45683;-85
2022/12/27 12:48:03;;;;;;;;;0.50;0.25;;;;;25.22;31.08;102456.72;4979403;28;45327;-85
2022/12/27 12:50:57;;;;;;;;;1.75;1.00;;;;;25.06;30.01;102452.38;4996611;28;45305;-85
2022/12/27 12:53:58;;;;;;;;;0.00;0.00;;;;;24.78;30.59;102439.94;4996583;28;46557;-85
2022/12/27 12:56:52;;;;;;;;;1.75;0.00;;;;;24.66;30.64;102436.22;4978579;28;45750;-84
2022/12/27 12:59:36;;;;;;;;;2.00;0.50;;;;;24.63;30.03;102433.75;4996541;28;45417;-85
2022/12/27 13:02:38;;;;;;;;;2.00;1.00;;;;;24.61;31.70;102421.47;4996579;28;45508;-85
2022/12/27 13:05:10;;;;;;;;;1.00;0.75;;;;;24.73;31.29;102421.56;4996420;28;45493;-85
2022/12/27 13:07:42;;;;;;;;;1.75;0.75;;;;;24.65;30.91;102428.34;4996463;28;45693;-84
2022/12/27 13:10:33;;;;;;;;;0.25;0.25;;;;;24.20;31.16;102417.72;4996059;28;45357;-84
2022/12/27 13:13:06;;;;;;;;;0.25;0.00;;;;;24.23;31.11;102414.00;4916474;28;45595;-84
2022/12/27 13:15:51;;;;;;;;;1.00;0.00;;;;;24.15;31.34;102407.34;4915217;28;46359;-84
2022/12/27 13:18:30;;;;;;;;;0.00;0.00;;;;;24.21;30.72;102406.13;4916423;28;45397;-85
2022/12/27 13:21:01;;;;;;;;;0.00;0.00;;;;;24.08;31.33;102400.69;4900407;28;45423;-84
2022/12/27 13:23:39;;;;;;;;;1.00;1.00;;;;;24.08;30.40;102406.00;4916289;28;45552;-85
2022/12/27 13:26:07;;;;;;;;;2.00;0.50;;;;;24.05;31.05;102398.22;4900166;28;45418;-84
2022/12/27 13:28:42;;;;;;;;;1.00;0.25;;;;;24.11;31.32;102402.31;4916452;28;45569;-85
2022/12/27 13:31:25;;;;;;;;;0.75;0.00;;;;;23.53;30.17;102396.78;4916210;28;45457;-85
2022/12/27 13:34:12;;;;;;;;;0.50;0.00;;;;;22.64;31.06;102395.53;4917631;28;45504;-84
2022/12/27 13:37:03;;;;;;;;;0.75;0.00;;;;;22.49;32.21;102386.59;4919064;28;46751;-85